createdAt,value
2023-04-10T00:02:24.516Z,8.15
2023-04-10T00:04:51.577Z,7.38
2023-04-10T00:07:18.453Z,7.90
2023-04-10T00:09:45.133Z,7.72
2023-04-10T00:12:11.945Z,7.88
2023-04-10T00:14:38.646Z,7.25
2023-04-10T00:17:05.454Z,7.57
2023-04-10T00:19:32.147Z,7.93
2023-04-10T00:21:58.861Z,7.53
2023-04-10T00:24:25.848Z,8.13
2023-04-10T00:26:52.510Z,7.78
2023-04-10T00:29:19.373Z,8.25
2023-04-10T00:31:46.260Z,7.88
2023-04-10T00:34:14.155Z,7.90
2023-04-10T00:36:41.015Z,7.93
2023-04-10T00:39:09.274Z,7.63
2023-04-10T00:41:36.021Z,7.32
2023-04-10T00:44:03.160Z,7.53
2023-04-10T00:46:31.591Z,7.97
2023-04-10T00:48:58.437Z,8.02
2023-04-10T00:51:25.146Z,7.43
2023-04-10T00:53:52.062Z,7.38
2023-04-10T00:56:19.424Z,7.78
2023-04-10T00:58:46.248Z,7.28
2023-04-10T01:01:13.476Z,7.88
2023-04-10T01:03:42.021Z,7.45
2023-04-10T01:06:19.556Z,7.88
2023-04-10T01:08:59.499Z,7.85
2023-04-10T01:11:38.335Z,7.57
2023-04-10T01:14:16.910Z,7.55
2023-04-10T01:16:54.177Z,8.15
2023-04-10T01:19:39.746Z,7.40
2023-04-10T01:22:10.604Z,7.95
2023-04-10T01:24:50.860Z,7.57
2023-04-10T01:27:20.636Z,7.07
2023-04-10T01:29:52.544Z,7.70
2023-04-10T01:32:21.711Z,7.32
2023-04-10T01:34:51.443Z,7.35
2023-04-10T01:37:26.123Z,7.50
2023-04-10T01:40:14.886Z,7.40
2023-04-10T01:42:48.970Z,7.80
2023-04-10T01:45:19.251Z,7.47
2023-04-10T01:47:48.708Z,7.63
2023-04-10T01:50:16.058Z,7.68
2023-04-10T01:52:43.024Z,7.45
2023-04-10T01:55:22.691Z,7.60
2023-04-10T02:00:25.033Z,7.78
2023-04-10T02:02:52.013Z,7.80
2023-04-10T02:05:19.737Z,8.05
2023-04-10T02:07:55.793Z,7.78
2023-04-10T02:10:31.514Z,7.82
2023-04-10T02:13:01.688Z,7.35
2023-04-10T02:15:32.372Z,7.78
2023-04-10T02:18:00.133Z,7.45
2023-04-10T02:20:27.006Z,7.80
2023-04-10T02:22:53.978Z,7.60
2023-04-10T02:25:20.862Z,7.75
2023-04-10T02:27:48.884Z,7.63
2023-04-10T02:30:16.616Z,7.95
2023-04-10T02:32:44.157Z,8.05
2023-04-10T02:35:10.927Z,7.75
2023-04-10T02:37:37.731Z,7.93
2023-04-10T02:40:05.114Z,7.55
2023-04-10T02:42:41.450Z,7.85
2023-04-10T02:45:09.546Z,7.75
2023-04-10T02:47:40.048Z,7.30
2023-04-10T02:50:10.109Z,7.55
2023-04-10T02:52:39.349Z,7.57
2023-04-10T02:55:06.544Z,7.65
2023-04-10T02:57:36.393Z,7.68
2023-04-10T03:00:05.352Z,7.68
2023-04-10T03:02:53.855Z,7.18
2023-04-10T03:05:21.425Z,7.60
2023-04-10T03:07:48.208Z,8.68
2023-04-10T03:10:15.447Z,7.30
2023-04-10T03:12:42.140Z,7.07
2023-04-10T03:15:09.075Z,7.32
2023-04-10T03:17:35.843Z,7.03
2023-04-10T03:20:02.851Z,7.78
2023-04-10T03:22:33.148Z,7.70
2023-04-10T03:25:00.324Z,7.50
2023-04-10T03:27:27.202Z,7.00
2023-04-10T03:29:53.932Z,7.88
2023-04-10T03:32:20.668Z,7.10
2023-04-10T03:34:47.345Z,7.35
2023-04-10T03:37:14.271Z,7.20
2023-04-10T03:39:41.173Z,6.95
2023-04-10T03:42:07.854Z,7.22
2023-04-10T03:44:35.855Z,7.03
2023-04-10T03:47:02.838Z,7.03
2023-04-10T03:49:30.880Z,7.53
2023-04-10T03:52:04.069Z,7.13
2023-04-10T03:54:30.786Z,6.85
2023-04-10T03:56:57.886Z,7.43
2023-04-10T03:59:37.305Z,6.82
2023-04-10T04:02:09.793Z,7.22
2023-04-10T04:04:36.834Z,7.25
2023-04-10T04:07:21.236Z,7.28
2023-04-10T04:10:09.026Z,7.30
2023-04-10T04:13:01.945Z,7.28
2023-04-10T04:15:39.510Z,7.20
2023-04-10T04:18:28.938Z,7.40
2023-04-10T04:21:15.771Z,7.13
2023-04-10T04:24:06.120Z,7.00
2023-04-10T04:26:53.143Z,7.25
2023-04-10T04:29:51.828Z,7.50
2023-04-10T04:32:33.491Z,7.03
2023-04-10T04:35:13.520Z,7.30
2023-04-10T04:38:03.167Z,10.18
2023-04-10T04:40:43.184Z,7.70
2023-04-10T04:43:29.788Z,7.28
2023-04-10T04:46:15.717Z,8.00
2023-04-10T04:48:51.335Z,7.40
2023-04-10T04:51:27.373Z,7.53
2023-04-10T04:54:04.701Z,8.00
2023-04-10T04:56:57.817Z,8.15
2023-04-10T04:59:31.801Z,7.97
2023-04-10T05:02:22.845Z,7.93
2023-04-10T05:05:15.901Z,8.20
2023-04-10T05:07:52.997Z,7.60
2023-04-10T05:10:47.099Z,7.97
2023-04-10T05:13:23.079Z,7.63
2023-04-10T05:16:09.362Z,7.68
2023-04-10T05:18:55.594Z,7.30
2023-04-10T05:21:42.900Z,7.40
2023-04-10T05:24:41.934Z,7.40
2023-04-10T05:27:34.774Z,7.22
2023-04-10T05:30:08.042Z,8.23
2023-04-10T05:32:37.754Z,7.03
2023-04-10T05:35:27.100Z,7.55
2023-04-10T05:37:59.127Z,7.35
2023-04-10T05:40:52.105Z,7.10
2023-04-10T05:43:39.354Z,6.97
2023-04-10T05:46:44.432Z,6.80
2023-04-10T05:49:24.704Z,6.78
2023-04-10T05:51:52.760Z,6.90
2023-04-10T05:54:57.871Z,6.93
2023-04-10T05:57:44.647Z,7.20
2023-04-10T06:00:30.117Z,7.28
2023-04-10T06:03:30.891Z,7.15
2023-04-10T06:06:02.549Z,7.07
2023-04-10T06:08:30.795Z,7.00
2023-04-10T06:10:57.401Z,7.22
2023-04-10T06:13:24.758Z,7.05
2023-04-10T06:15:56.138Z,7.13
2023-04-10T06:18:23.661Z,7.32
2023-04-10T06:20:50.332Z,7.13
2023-04-10T06:23:17.018Z,7.45
2023-04-10T06:25:44.051Z,7.85
2023-04-10T06:28:10.904Z,7.80
2023-04-10T06:30:38.295Z,7.90
2023-04-10T06:33:06.946Z,7.95
2023-04-10T06:35:36.650Z,8.45
2023-04-10T06:38:04.643Z,7.95
2023-04-10T06:40:34.334Z,7.70
2023-04-10T06:43:01.346Z,8.95
2023-04-10T06:45:34.705Z,9.27
2023-04-10T06:48:01.579Z,9.13
2023-04-10T06:50:28.343Z,8.57
2023-04-10T06:52:56.433Z,9.18
2023-04-10T06:55:23.113Z,9.40
2023-04-10T06:57:49.919Z,8.98
2023-04-10T07:00:16.869Z,8.85
2023-04-10T07:02:43.585Z,9.32
2023-04-10T07:05:10.362Z,10.13
2023-04-10T07:07:37.451Z,10.18
2023-04-10T07:10:04.418Z,10.30
2023-04-10T07:12:31.124Z,11.45
2023-04-10T07:14:57.756Z,9.75
2023-04-10T07:17:24.813Z,9.85
2023-04-10T07:19:51.468Z,9.50
2023-04-10T07:22:18.177Z,10.30
2023-04-10T07:24:44.939Z,10.45
2023-04-10T07:27:12.919Z,10.07
2023-04-10T07:29:39.543Z,11.65
2023-04-10T07:32:06.798Z,12.65
2023-04-10T07:34:34.729Z,11.10
2023-04-10T07:37:01.465Z,11.38
2023-04-10T07:39:28.488Z,11.48
2023-04-10T07:41:55.409Z,11.40
2023-04-10T07:44:22.129Z,12.75
2023-04-10T07:46:48.745Z,12.68
2023-04-10T07:49:18.187Z,12.32
2023-04-10T07:51:44.850Z,13.07
2023-04-10T07:54:11.573Z,12.10
2023-04-10T07:56:38.199Z,15.95
2023-04-10T07:59:05.834Z,12.48
2023-04-10T08:01:33.361Z,13.30
2023-04-10T08:04:01.050Z,12.80
2023-04-10T08:06:29.652Z,12.80
2023-04-10T08:08:56.587Z,12.82
2023-04-10T08:11:27.601Z,13.85
2023-04-10T08:13:59.585Z,15.02
2023-04-10T08:16:27.187Z,14.55
2023-04-10T08:18:55.253Z,13.90
2023-04-10T08:21:22.636Z,13.75
2023-04-10T08:23:54.190Z,15.27
2023-04-10T08:26:21.444Z,16.10
2023-04-10T08:28:53.282Z,13.93
2023-04-10T08:31:21.734Z,14.35
2023-04-10T08:33:48.961Z,13.25
2023-04-10T08:36:18.352Z,14.50
2023-04-10T08:38:47.237Z,13.55
2023-04-10T08:41:15.526Z,13.98
2023-04-10T08:43:43.559Z,16.20
2023-04-10T08:46:10.716Z,14.82
2023-04-10T08:48:50.349Z,14.65
2023-04-10T08:51:25.976Z,14.57
2023-04-10T08:53:59.387Z,14.70
2023-04-10T08:56:26.389Z,15.38
2023-04-10T08:58:53.321Z,14.68
2023-04-10T09:01:21.480Z,17.65
2023-04-10T09:03:49.271Z,17.13
2023-04-10T09:06:15.995Z,15.82
2023-04-10T09:08:42.627Z,15.98
2023-04-10T09:11:09.257Z,16.52
2023-04-10T09:13:41.420Z,16.45
2023-04-10T09:16:09.158Z,18.27
2023-04-10T09:18:42.764Z,17.38
2023-04-10T09:21:11.364Z,17.00
2023-04-10T09:23:38.059Z,16.63
2023-04-10T09:26:24.389Z,16.83
2023-04-10T09:29:04.863Z,15.98
2023-04-10T09:31:36.390Z,15.57
2023-04-10T09:34:22.796Z,15.15
2023-04-10T09:36:57.313Z,15.43
2023-04-10T09:39:34.875Z,16.30
2023-04-10T09:42:01.758Z,16.83
2023-04-10T09:44:33.770Z,21.05
2023-04-10T09:47:16.804Z,21.67
2023-04-10T09:49:52.480Z,21.38
2023-04-10T09:52:25.679Z,19.67
2023-04-10T09:55:00.355Z,17.13
2023-04-10T09:57:30.719Z,18.70
2023-04-10T09:59:59.865Z,17.30
2023-04-10T10:02:29.578Z,17.33
2023-04-10T10:04:57.815Z,18.92
2023-04-10T10:07:24.449Z,19.55
2023-04-10T10:09:52.371Z,17.50
2023-04-10T10:12:24.985Z,17.20
2023-04-10T10:14:58.938Z,18.08
2023-04-10T10:17:31.100Z,16.80
2023-04-10T10:20:04.777Z,17.05
2023-04-10T10:22:32.441Z,18.40
2023-04-10T10:25:00.052Z,16.42
2023-04-10T10:27:27.609Z,16.40
2023-04-10T10:29:57.969Z,16.85
2023-04-10T10:32:24.986Z,16.67
2023-04-10T10:34:53.019Z,15.88
2023-04-10T10:37:21.505Z,15.75
2023-04-10T10:40:09.560Z,15.27
2023-04-10T10:42:47.113Z,16.05
2023-04-10T10:45:17.270Z,16.52
2023-04-10T10:47:54.403Z,14.98
2023-04-10T10:50:24.276Z,14.80
2023-04-10T10:52:57.445Z,14.35
2023-04-10T10:55:24.708Z,14.77
2023-04-10T10:57:55.821Z,14.80
2023-04-10T11:00:24.025Z,14.50
2023-04-10T11:03:09.089Z,14.68
2023-04-10T11:05:55.859Z,14.98
2023-04-10T11:08:37.334Z,15.85
2023-04-10T11:11:06.429Z,14.85
2023-04-10T11:13:40.557Z,13.73
2023-04-10T11:16:10.572Z,14.13
2023-04-10T11:18:47.187Z,14.38
2023-04-10T11:21:19.685Z,13.88
2023-04-10T11:23:55.933Z,14.63
2023-04-10T11:26:44.152Z,14.40
2023-04-10T11:29:22.189Z,15.40
2023-04-10T11:31:59.621Z,13.65
2023-04-10T11:34:30.986Z,14.48
2023-04-10T11:36:57.776Z,13.82
2023-04-10T11:39:26.482Z,13.80
2023-04-10T11:41:54.559Z,13.20
2023-04-10T11:44:39.557Z,13.50
2023-04-10T11:47:06.761Z,13.40
2023-04-10T11:49:34.675Z,12.90
2023-04-10T11:52:01.571Z,13.68
2023-04-10T11:54:29.403Z,13.50
2023-04-10T11:57:03.030Z,13.15
2023-04-10T11:59:31.017Z,12.95
2023-04-10T12:02:12.859Z,13.43
2023-04-10T12:04:40.483Z,12.50
2023-04-10T12:07:07.779Z,11.88
2023-04-10T12:09:34.605Z,13.20
2023-04-10T12:12:03.550Z,14.30
2023-04-10T12:14:48.732Z,13.25
2023-04-10T12:17:16.933Z,12.82
2023-04-10T12:19:44.201Z,13.75
2023-04-10T12:22:13.230Z,12.70
2023-04-10T12:24:48.150Z,12.43
2023-04-10T12:27:22.173Z,12.30
2023-04-10T12:29:50.882Z,12.40
2023-04-10T12:32:17.953Z,12.20
2023-04-10T12:34:51.933Z,12.15
2023-04-10T12:37:19.301Z,11.57
2023-04-10T12:39:46.304Z,11.13
2023-04-10T12:42:19.018Z,12.43
2023-04-10T12:44:56.988Z,12.05
2023-04-10T12:47:25.112Z,11.73
2023-04-10T12:50:13.169Z,11.77
2023-04-10T12:52:42.766Z,12.07
2023-04-10T12:55:16.952Z,11.50
2023-04-10T12:57:51.870Z,10.73
2023-04-10T13:00:19.607Z,10.52
2023-04-10T13:02:47.827Z,10.95
2023-04-10T13:05:15.662Z,10.50
2023-04-10T13:07:42.927Z,10.63
2023-04-10T13:10:10.389Z,10.85
2023-04-10T13:12:38.895Z,9.88
2023-04-10T13:15:07.613Z,9.60
2023-04-10T13:17:34.827Z,10.48
2023-04-10T13:20:01.568Z,10.27
2023-04-10T13:22:28.305Z,10.13
2023-04-10T13:24:54.923Z,10.48
2023-04-10T13:27:21.554Z,9.88
2023-04-10T13:29:48.218Z,10.68
2023-04-10T13:32:14.934Z,9.80
2023-04-10T13:34:41.696Z,9.05
2023-04-10T13:37:09.676Z,10.05
2023-04-10T13:39:36.402Z,9.88
2023-04-10T13:42:03.087Z,10.35
2023-04-10T13:44:29.778Z,9.27
2023-04-10T13:46:58.162Z,9.68
2023-04-10T13:49:24.944Z,9.73
2023-04-10T13:51:51.628Z,9.85
2023-04-10T13:54:18.312Z,10.32
2023-04-10T13:56:46.439Z,9.02
2023-04-10T13:59:13.683Z,9.57
2023-04-10T14:01:40.486Z,9.25
2023-04-10T14:04:07.434Z,9.40
2023-04-10T14:06:34.315Z,9.43
2023-04-10T14:09:01.000Z,8.55
2023-04-10T14:11:27.774Z,8.60
2023-04-10T14:13:54.447Z,8.65
2023-04-10T14:16:21.253Z,8.50
2023-04-10T14:18:47.965Z,8.85
2023-04-10T14:21:14.691Z,9.10
2023-04-10T14:23:42.427Z,8.85
2023-04-10T14:26:09.124Z,8.38
2023-04-10T14:28:35.979Z,8.82
2023-04-10T14:31:02.764Z,8.45
2023-04-10T14:33:29.588Z,7.95
2023-04-10T14:35:56.368Z,8.20
2023-04-10T14:38:23.009Z,8.45
2023-04-10T14:40:50.713Z,7.80
2023-04-10T14:43:19.341Z,8.50
2023-04-10T14:45:46.135Z,8.65
2023-04-10T14:48:13.348Z,8.18
2023-04-10T14:50:40.556Z,10.57
2023-04-10T14:53:09.770Z,8.20
2023-04-10T14:55:37.321Z,7.82
2023-04-10T14:58:04.607Z,8.32
2023-04-10T15:00:32.428Z,7.95
2023-04-10T15:02:59.436Z,7.65
2023-04-10T15:05:27.524Z,7.38
2023-04-10T15:07:55.110Z,8.10
2023-04-10T15:10:21.938Z,7.30
2023-04-10T15:12:48.564Z,7.50
2023-04-10T15:15:15.308Z,7.28
2023-04-10T15:17:41.940Z,7.00
2023-04-10T15:20:09.006Z,7.28
2023-04-10T15:22:35.943Z,7.57
2023-04-10T15:25:02.953Z,7.38
2023-04-10T15:27:29.724Z,7.10
2023-04-10T15:29:57.097Z,7.72
2023-04-10T15:32:23.847Z,7.63
2023-04-10T15:34:50.501Z,7.07
2023-04-10T15:37:17.182Z,7.70
2023-04-10T15:39:43.823Z,7.32
2023-04-10T15:42:10.553Z,7.35
2023-04-10T15:44:37.366Z,7.72
2023-04-10T15:47:04.082Z,7.95
2023-04-10T15:49:37.733Z,7.38
2023-04-10T15:52:06.424Z,7.05
2023-04-10T15:54:34.302Z,7.20
2023-04-10T15:57:02.173Z,7.75
2023-04-10T15:59:29.386Z,7.22
2023-04-10T16:01:56.420Z,7.10
2023-04-10T16:04:23.752Z,6.90
2023-04-10T16:06:50.656Z,6.78
2023-04-10T16:11:47.909Z,7.43
2023-04-10T16:14:14.526Z,8.73
2023-04-10T16:16:41.196Z,7.03
2023-04-10T16:19:07.799Z,6.85
2023-04-10T16:21:34.518Z,7.00
2023-04-10T16:24:01.443Z,6.85
2023-04-10T16:26:28.298Z,6.70
2023-04-10T16:28:55.072Z,6.80
2023-04-10T16:31:21.949Z,7.07
2023-04-10T16:33:48.626Z,7.10
2023-04-10T16:36:15.522Z,6.75
2023-04-10T16:38:42.200Z,6.95
2023-04-10T16:41:10.003Z,7.05
2023-04-10T16:43:36.672Z,7.20
2023-04-10T16:46:03.481Z,6.47
2023-04-10T16:48:30.207Z,7.10
2023-04-10T16:51:04.763Z,6.60
2023-04-10T16:53:32.607Z,6.93
2023-04-10T16:56:01.956Z,6.60
2023-04-10T16:58:30.425Z,6.80
2023-04-10T17:00:57.148Z,6.30
2023-04-10T17:03:23.862Z,6.45
2023-04-10T17:05:51.262Z,6.35
2023-04-10T17:08:17.902Z,6.45
2023-04-10T17:10:44.544Z,6.60
2023-04-10T17:13:11.196Z,8.05
2023-04-10T17:15:37.814Z,5.90
2023-04-10T17:18:04.594Z,6.25
2023-04-10T17:20:35.722Z,6.60
2023-04-10T17:23:02.337Z,6.32
2023-04-10T17:25:28.996Z,6.47
2023-04-10T17:27:55.719Z,6.43
2023-04-10T17:30:22.324Z,6.57
2023-04-10T17:32:49.500Z,5.80
2023-04-10T17:35:16.339Z,6.60
2023-04-10T17:37:42.950Z,6.40
2023-04-10T17:40:10.891Z,6.47
2023-04-10T17:42:37.529Z,7.10
2023-04-10T17:45:04.589Z,6.93
2023-04-10T17:47:31.567Z,6.50
2023-04-10T17:49:58.226Z,6.32
2023-04-10T17:52:24.906Z,6.68
2023-04-10T17:54:51.570Z,6.80
2023-04-10T17:57:18.171Z,6.68
2023-04-10T17:59:44.869Z,6.30
2023-04-10T18:02:11.539Z,6.85
2023-04-10T18:04:38.281Z,6.55
2023-04-10T18:07:04.911Z,6.68
2023-04-10T18:09:31.503Z,6.95
2023-04-10T18:11:58.081Z,7.25
2023-04-10T18:14:24.664Z,7.60
2023-04-10T18:16:51.378Z,6.57
2023-04-10T18:19:18.105Z,6.93
2023-04-10T18:21:45.909Z,7.50
2023-04-10T18:24:13.936Z,6.90
2023-04-10T18:26:40.778Z,7.28
2023-04-10T18:29:07.777Z,8.95
2023-04-10T18:31:34.400Z,7.63
2023-04-10T18:34:07.849Z,7.40
2023-04-10T18:36:35.477Z,6.88
2023-04-10T18:39:02.132Z,6.80
2023-04-10T18:41:28.729Z,7.07
2023-04-10T18:44:04.357Z,7.75
2023-04-10T18:46:32.988Z,7.20
2023-04-10T18:49:01.072Z,7.78
2023-04-10T18:51:28.223Z,7.30
2023-04-10T18:53:55.171Z,7.28
2023-04-10T18:56:22.212Z,7.65
2023-04-10T18:58:50.144Z,7.25
2023-04-10T19:01:20.716Z,7.57
2023-04-10T19:03:48.617Z,7.97
2023-04-10T19:06:17.883Z,7.60
2023-04-10T19:08:44.594Z,7.28
2023-04-10T19:11:11.450Z,7.70
2023-04-10T19:13:38.069Z,7.75
2023-04-10T19:16:05.010Z,7.50
2023-04-10T19:18:32.190Z,7.88
2023-04-10T19:20:59.308Z,7.68
2023-04-10T19:23:26.515Z,8.30
2023-04-10T19:25:54.647Z,7.90
2023-04-10T19:28:23.237Z,7.80
2023-04-10T19:30:50.169Z,7.72
2023-04-10T19:33:17.278Z,8.32
2023-04-10T19:35:44.046Z,9.00
2023-04-10T19:38:10.901Z,7.93
2023-04-10T19:40:37.597Z,7.97
2023-04-10T19:43:04.267Z,8.20
2023-04-10T19:45:32.510Z,7.90
2023-04-10T19:48:00.095Z,8.15
2023-04-10T19:50:28.969Z,8.75
2023-04-10T19:52:55.669Z,8.15
2023-04-10T19:55:22.425Z,8.68
2023-04-10T19:57:50.150Z,8.65
2023-04-10T20:00:17.207Z,8.60
2023-04-10T20:02:46.827Z,7.93
2023-04-10T20:05:13.736Z,8.52
2023-04-10T20:07:40.540Z,8.50
2023-04-10T20:10:08.126Z,8.50
2023-04-10T20:12:34.814Z,9.40
2023-04-10T20:15:02.408Z,8.73
2023-04-10T20:17:29.177Z,8.60
2023-04-10T20:19:57.024Z,8.63
2023-04-10T20:22:23.778Z,8.68
2023-04-10T20:24:50.489Z,9.18
2023-04-10T20:27:17.481Z,9.00
2023-04-10T20:29:44.148Z,8.73
2023-04-10T20:32:10.820Z,9.68
2023-04-10T20:34:37.546Z,9.45
2023-04-10T20:37:05.599Z,9.55
2023-04-10T20:39:33.397Z,9.20
2023-04-10T20:42:00.107Z,9.75
2023-04-10T20:44:29.507Z,9.73
2023-04-10T20:46:56.254Z,9.57
2023-04-10T20:49:24.224Z,9.88
2023-04-10T20:51:50.946Z,9.45
2023-04-10T20:54:19.132Z,9.27
2023-04-10T20:56:46.672Z,9.15
2023-04-10T20:59:13.410Z,9.25
2023-04-10T21:01:40.294Z,9.40
2023-04-10T21:04:07.187Z,10.35
2023-04-10T21:06:33.849Z,9.63
2023-04-10T21:09:00.717Z,9.93
2023-04-10T21:11:27.711Z,10.13
2023-04-10T21:13:54.675Z,10.05
2023-04-10T21:16:21.490Z,9.95
2023-04-10T21:18:48.394Z,10.55
2023-04-10T21:21:15.453Z,9.40
2023-04-10T21:23:42.057Z,9.65
2023-04-10T21:26:08.655Z,10.40
2023-04-10T21:28:35.326Z,10.63
2023-04-10T21:31:02.329Z,11.75
2023-04-10T21:33:28.906Z,11.55
2023-04-10T21:35:55.936Z,10.75
2023-04-10T21:38:24.335Z,9.90
2023-04-10T21:40:52.130Z,11.02
2023-04-10T21:43:19.750Z,10.77
2023-04-10T21:45:46.663Z,11.00
2023-04-10T21:48:13.455Z,10.38
2023-04-10T21:50:40.606Z,10.50
2023-04-10T21:53:07.249Z,10.90
2023-04-10T21:55:34.001Z,10.50
2023-04-10T21:58:00.751Z,10.70
2023-04-10T22:00:28.841Z,11.05
2023-04-10T22:02:56.061Z,10.80
2023-04-10T22:05:24.493Z,10.70
2023-04-10T22:07:52.103Z,10.85
2023-04-10T22:10:19.075Z,14.40
2023-04-10T22:12:48.624Z,11.90
2023-04-10T22:15:16.186Z,14.43
2023-04-10T22:17:43.268Z,13.95
2023-04-10T22:20:10.599Z,12.00
2023-04-10T22:22:37.444Z,10.90
2023-04-10T22:25:04.433Z,11.40
2023-04-10T22:27:31.060Z,11.32
2023-04-10T22:32:27.229Z,10.88
2023-04-10T22:34:53.889Z,11.02
2023-04-10T22:37:20.583Z,11.40
2023-04-10T22:39:47.217Z,11.13
2023-04-10T22:42:13.895Z,11.20
2023-04-10T22:44:40.642Z,11.02
2023-04-10T22:47:07.252Z,10.35
2023-04-10T22:49:33.866Z,10.45
2023-04-10T22:52:00.679Z,10.73
2023-04-10T22:54:29.208Z,10.75
2023-04-10T22:56:57.340Z,10.70
2023-04-10T22:59:23.963Z,10.52
2023-04-10T23:01:51.347Z,10.98
2023-04-10T23:04:18.364Z,11.20
2023-04-10T23:06:45.057Z,11.85
2023-04-10T23:09:11.697Z,11.68
2023-04-10T23:11:38.850Z,11.50
2023-04-10T23:14:05.585Z,12.65
2023-04-10T23:16:32.301Z,11.85
2023-04-10T23:18:58.950Z,11.73
2023-04-10T23:21:25.618Z,12.07
2023-04-10T23:23:52.301Z,11.77
2023-04-10T23:26:18.906Z,11.70
2023-04-10T23:28:45.677Z,12.30
2023-04-10T23:31:12.393Z,13.75
2023-04-10T23:33:38.991Z,12.10
2023-04-10T23:36:06.591Z,12.48
2023-04-10T23:38:33.216Z,12.75
2023-04-10T23:40:59.822Z,12.80
2023-04-10T23:43:26.448Z,11.88
2023-04-10T23:45:53.105Z,12.30
2023-04-10T23:48:19.713Z,13.30
2023-04-10T23:50:46.330Z,13.07
2023-04-10T23:53:14.606Z,13.20
2023-04-10T23:55:42.033Z,13.25
2023-04-10T23:58:09.188Z,12.65
